createdAt,value
2022-12-13T00:00:09.192Z,1.85
2022-12-13T00:05:15.106Z,1.52
2022-12-13T00:15:21.880Z,2.30
2022-12-13T00:20:27.171Z,1.55
2022-12-13T00:25:30.813Z,1.80
2022-12-13T00:30:34.492Z,1.80
2022-12-13T00:35:43.181Z,1.63
2022-12-13T00:40:46.819Z,1.65
2022-12-13T00:45:53.637Z,1.77
2022-12-13T00:50:58.906Z,1.80
2022-12-13T00:56:02.601Z,2.10
2022-12-13T01:01:08.471Z,2.05
2022-12-13T01:06:18.536Z,1.88
2022-12-13T01:11:22.474Z,1.88
2022-12-13T01:16:26.163Z,1.98
2022-12-13T01:21:32.520Z,1.95
2022-12-13T01:31:39.032Z,2.38
2022-12-13T01:36:45.796Z,1.80
2022-12-13T01:41:51.177Z,2.35
2022-12-13T01:46:54.906Z,2.07
2022-12-13T01:52:06.463Z,2.67
2022-12-13T01:57:11.212Z,2.60
2022-12-13T02:02:15.851Z,2.72
2022-12-13T02:07:24.964Z,2.50
2022-12-13T02:12:30.723Z,2.35
2022-12-13T02:17:45.652Z,2.42
2022-12-13T02:23:14.089Z,2.40
2022-12-13T02:28:40.849Z,2.47
2022-12-13T02:33:53.243Z,2.30
2022-12-13T02:39:02.212Z,1.92
2022-12-13T02:44:22.489Z,2.78
2022-12-13T02:49:33.392Z,2.30
2022-12-13T02:54:38.331Z,2.30
2022-12-13T02:59:46.779Z,1.92
2022-12-13T03:05:05.178Z,2.10
2022-12-13T03:10:16.119Z,2.00
2022-12-13T03:15:26.834Z,1.63
2022-12-13T03:20:32.248Z,1.92
2022-12-13T03:25:35.997Z,1.80
2022-12-13T03:30:39.997Z,1.85
2022-12-13T03:35:46.049Z,2.08
2022-12-13T03:40:50.511Z,1.85
2022-12-13T03:45:54.673Z,2.15
2022-12-13T03:51:00.710Z,1.90
2022-12-13T03:56:06.409Z,1.70
2022-12-13T04:01:12.961Z,1.83
2022-12-13T04:11:27.023Z,1.90
2022-12-13T04:16:30.665Z,2.50
2022-12-13T04:21:35.974Z,2.17
2022-12-13T04:26:39.588Z,2.00
2022-12-13T04:31:44.026Z,2.05
2022-12-13T04:36:49.303Z,2.58
2022-12-13T04:41:53.561Z,2.42
2022-12-13T04:47:01.121Z,2.30
2022-12-13T04:52:07.608Z,2.50
2022-12-13T04:57:12.543Z,2.00
2022-12-13T05:02:23.956Z,2.28
2022-12-13T05:07:29.780Z,2.35
2022-12-13T05:12:33.464Z,2.15
2022-12-13T05:17:37.050Z,2.08
2022-12-13T05:22:42.329Z,2.25
2022-12-13T05:27:45.929Z,2.17
2022-12-13T05:32:49.531Z,2.30
2022-12-13T05:37:55.478Z,2.20
2022-12-13T05:43:01.497Z,2.10
2022-12-13T05:48:05.740Z,2.20
2022-12-13T05:53:12.657Z,2.17
2022-12-13T05:58:16.404Z,2.15
2022-12-13T06:03:27.133Z,2.20
2022-12-13T06:08:33.145Z,2.00
2022-12-13T06:13:42.895Z,1.92
2022-12-13T06:18:47.077Z,1.83
2022-12-13T06:23:56.568Z,2.13
2022-12-13T06:29:00.218Z,1.87
2022-12-13T06:34:14.465Z,2.60
2022-12-13T06:39:20.705Z,2.75
2022-12-13T06:44:24.339Z,2.33
2022-12-13T06:49:32.462Z,2.08
2022-12-13T06:54:37.930Z,2.00
2022-12-13T06:59:41.940Z,2.17
2022-12-13T07:04:45.783Z,1.80
2022-12-13T07:09:51.027Z,1.85
2022-12-13T07:14:55.394Z,1.85
2022-12-13T07:20:01.254Z,1.70
2022-12-13T07:25:07.417Z,1.85
2022-12-13T07:30:31.896Z,1.90
2022-12-13T07:35:37.021Z,2.40
2022-12-13T07:40:43.063Z,1.60
2022-12-13T07:45:46.693Z,1.90
2022-12-13T07:50:54.744Z,1.70
2022-12-13T07:56:02.643Z,1.90
2022-12-13T08:01:07.657Z,2.08
2022-12-13T08:06:12.689Z,1.95
2022-12-13T08:11:18.204Z,1.80
2022-12-13T08:16:26.126Z,1.88
2022-12-13T08:27:02.925Z,1.90
2022-12-13T08:32:08.229Z,1.85
2022-12-13T08:37:11.878Z,1.35
2022-12-13T08:42:20.336Z,1.83
2022-12-13T08:47:26.647Z,1.77
2022-12-13T08:52:30.636Z,1.95
2022-12-13T08:57:36.923Z,1.80
2022-12-13T09:02:40.581Z,2.08
2022-12-13T09:07:44.252Z,2.22
2022-12-13T09:12:49.558Z,1.95
2022-12-13T09:17:53.341Z,1.55
2022-12-13T09:23:01.217Z,2.20
2022-12-13T09:28:07.513Z,1.50
2022-12-13T09:33:29.061Z,1.67
2022-12-13T09:38:35.832Z,1.50
2022-12-13T09:43:44.057Z,1.70
2022-12-13T09:48:48.657Z,1.45
2022-12-13T09:53:55.105Z,1.30
2022-12-13T09:59:00.411Z,1.60
2022-12-13T10:04:04.052Z,1.60
2022-12-13T10:09:10.957Z,1.40
2022-12-13T10:14:23.596Z,1.50
2022-12-13T10:19:31.614Z,1.10
2022-12-13T10:24:51.693Z,1.70
2022-12-13T10:30:03.789Z,1.45
2022-12-13T10:35:22.160Z,1.25
2022-12-13T10:40:32.643Z,1.40
2022-12-13T10:45:40.309Z,1.50
2022-12-13T10:50:44.026Z,1.55
2022-12-13T10:55:55.547Z,1.52
2022-12-13T11:01:10.388Z,1.25
2022-12-13T11:06:15.911Z,1.45
2022-12-13T11:11:27.316Z,1.05
2022-12-13T11:16:35.833Z,1.27
2022-12-13T11:21:40.595Z,1.15
2022-12-13T11:26:53.948Z,1.00
2022-12-13T11:32:08.694Z,1.30
2022-12-13T11:37:23.698Z,1.17
2022-12-13T11:42:31.472Z,1.58
2022-12-13T11:47:40.232Z,1.08
2022-12-13T11:52:50.263Z,1.30
2022-12-13T11:57:59.926Z,1.10
2022-12-13T12:03:19.094Z,1.58
2022-12-13T12:08:31.994Z,1.23
2022-12-13T12:13:51.582Z,1.25
2022-12-13T12:19:01.170Z,1.05
2022-12-13T12:24:20.958Z,1.30
2022-12-13T12:29:53.015Z,1.20
2022-12-13T12:35:11.872Z,1.17
2022-12-13T12:41:15.140Z,1.20
2022-12-13T12:46:23.789Z,0.98
2022-12-13T12:51:37.578Z,1.20
2022-12-13T12:56:52.796Z,1.15
2022-12-13T13:02:05.179Z,1.30
2022-12-13T13:07:23.171Z,1.10
2022-12-13T13:12:30.301Z,1.45
2022-12-13T13:17:47.721Z,1.10
2022-12-13T13:23:25.228Z,1.20
2022-12-13T13:28:22.174Z,1.23
2022-12-13T13:33:45.296Z,1.13
2022-12-13T13:38:54.885Z,1.00
2022-12-13T13:44:02.205Z,1.10
2022-12-13T13:49:12.287Z,0.90
2022-12-13T13:54:46.934Z,1.20
2022-12-13T14:00:14.011Z,1.10
2022-12-13T14:10:50.775Z,1.38
2022-12-13T14:16:26.074Z,1.05
2022-12-13T14:21:56.073Z,1.30
2022-12-13T14:27:13.443Z,1.00
2022-12-13T14:32:26.381Z,1.00
2022-12-13T14:37:32.550Z,1.08
2022-12-13T14:42:38.016Z,1.27
2022-12-13T14:47:42.340Z,0.90
2022-12-13T14:52:47.489Z,1.55
2022-12-13T14:57:56.309Z,1.10
2022-12-13T15:03:02.163Z,1.05
2022-12-13T15:08:11.460Z,1.40
2022-12-13T15:13:29.030Z,1.30
2022-12-13T15:18:33.388Z,1.20
2022-12-13T15:23:49.109Z,1.00
2022-12-13T15:28:56.864Z,1.60
2022-12-13T15:34:28.569Z,1.23
2022-12-13T15:39:38.752Z,1.17
2022-12-13T15:44:48.246Z,1.55
2022-12-13T15:49:54.109Z,1.50
2022-12-13T15:54:59.440Z,1.60
2022-12-13T16:00:30.652Z,1.65
2022-12-13T16:05:37.507Z,1.70
2022-12-13T16:10:46.207Z,1.65
2022-12-13T16:15:52.794Z,1.80
2022-12-13T16:21:04.640Z,2.47
2022-12-13T16:26:11.482Z,2.13
2022-12-13T16:31:18.751Z,2.20
2022-12-13T16:36:22.357Z,1.35
2022-12-13T16:41:26.153Z,2.25
2022-12-13T16:47:14.155Z,2.72
2022-12-13T16:51:55.481Z,1.90
2022-12-13T16:56:59.089Z,2.00
2022-12-13T17:02:04.416Z,2.20
2022-12-13T17:07:09.410Z,1.75
2022-12-13T17:12:13.055Z,2.10
2022-12-13T17:17:19.315Z,2.08
2022-12-13T17:22:23.031Z,1.90
2022-12-13T17:27:26.749Z,2.10
2022-12-13T17:32:32.057Z,2.72
2022-12-13T17:37:35.842Z,2.85
2022-12-13T17:42:39.474Z,3.10
2022-12-13T17:47:45.876Z,3.50
2022-12-13T17:57:52.316Z,3.83
2022-12-13T18:02:59.292Z,3.60
2022-12-13T18:08:02.995Z,3.53
2022-12-13T18:13:06.614Z,3.60
2022-12-13T18:18:12.842Z,3.50
2022-12-13T18:23:16.697Z,3.40
2022-12-13T18:28:20.279Z,3.42
2022-12-13T18:33:26.130Z,3.40
2022-12-13T18:38:36.202Z,2.90
2022-12-13T18:43:40.655Z,2.40
2022-12-13T18:48:46.778Z,2.63
2022-12-13T18:53:51.243Z,3.20
2022-12-13T18:58:55.328Z,3.17
2022-12-13T19:04:00.622Z,4.10
2022-12-13T19:09:04.293Z,3.55
2022-12-13T19:14:07.874Z,3.83
2022-12-13T19:19:13.115Z,3.58
2022-12-13T19:24:16.712Z,3.00
2022-12-13T19:29:20.385Z,2.40
2022-12-13T19:34:25.671Z,2.90
2022-12-13T19:39:29.257Z,3.00
2022-12-13T19:44:32.855Z,3.45
2022-12-13T19:49:38.093Z,3.67
2022-12-13T19:54:41.864Z,3.42
2022-12-13T19:59:45.487Z,3.50
2022-12-13T20:04:50.814Z,3.00
2022-12-13T20:09:54.454Z,3.20
2022-12-13T20:14:59.151Z,3.00
2022-12-13T20:20:05.045Z,3.10
2022-12-13T20:25:09.594Z,3.42
2022-12-13T20:30:13.933Z,3.70
2022-12-13T20:35:19.629Z,2.97
2022-12-13T20:40:26.288Z,2.67
2022-12-13T20:45:30.166Z,2.95
2022-12-13T20:50:35.466Z,2.70
2022-12-13T20:55:39.087Z,3.00
2022-12-13T21:00:42.780Z,2.80
2022-12-13T21:05:48.260Z,2.60
2022-12-13T21:10:51.855Z,3.10
2022-12-13T21:15:55.656Z,2.60
2022-12-13T21:21:00.927Z,3.05
2022-12-13T21:26:05.428Z,2.90
2022-12-13T21:31:10.791Z,2.85
2022-12-13T21:36:18.905Z,2.87
2022-12-13T21:41:22.808Z,2.88
2022-12-13T21:46:41.405Z,3.00
2022-12-13T21:51:53.241Z,3.10
2022-12-13T21:56:56.813Z,3.13
2022-12-13T22:02:02.322Z,2.92
2022-12-13T22:07:08.609Z,3.28
2022-12-13T22:12:19.881Z,2.90
2022-12-13T22:17:31.052Z,3.08
2022-12-13T22:22:39.385Z,3.13
2022-12-13T22:27:43.032Z,3.00
2022-12-13T22:32:46.616Z,2.40
2022-12-13T22:37:51.958Z,2.92
2022-12-13T22:42:55.541Z,2.63
2022-12-13T22:47:59.162Z,2.70
2022-12-13T22:53:04.479Z,2.42
2022-12-13T22:58:08.073Z,2.30
2022-12-13T23:03:11.690Z,2.28
2022-12-13T23:08:16.962Z,2.20
2022-12-13T23:13:20.599Z,2.23
2022-12-13T23:18:24.599Z,2.30
2022-12-13T23:23:30.729Z,2.22
2022-12-13T23:28:34.374Z,2.60
2022-12-13T23:33:38.787Z,2.80
2022-12-13T23:38:44.512Z,2.70
2022-12-13T23:43:48.693Z,2.88
2022-12-13T23:48:52.543Z,2.85
2022-12-13T23:53:58.669Z,2.38
2022-12-13T23:59:02.267Z,2.15
